createdAt,value
2022-09-02T00:01:33.982Z,90.22
2022-09-02T00:03:36.915Z,90.56
2022-09-02T00:05:39.725Z,91.44
2022-09-02T00:07:43.776Z,91.58
2022-09-02T00:09:46.449Z,91.56
2022-09-02T00:11:50.871Z,90.54
2022-09-02T00:13:53.653Z,89.62
2022-09-02T00:15:56.834Z,89.13
2022-09-02T00:17:59.507Z,88.99
2022-09-02T00:20:02.297Z,89.96
2022-09-02T00:22:05.273Z,90.45
2022-09-02T00:24:09.508Z,90.24
2022-09-02T00:26:13.256Z,89.16
2022-09-02T00:28:17.580Z,88.86
2022-09-02T00:30:21.864Z,89.15
2022-09-02T00:32:24.524Z,88.58
2022-09-02T00:34:27.452Z,88.45
2022-09-02T00:36:30.231Z,88.63
2022-09-02T00:38:34.144Z,88.60
2022-09-02T00:40:38.924Z,88.58
2022-09-02T00:42:42.469Z,88.47
2022-09-02T00:44:45.312Z,87.99
2022-09-02T00:46:48.209Z,87.95
2022-09-02T00:48:57.105Z,87.40
2022-09-02T00:50:59.933Z,87.10
2022-09-02T00:53:07.526Z,87.75
2022-09-02T00:55:16.123Z,87.78
2022-09-02T00:57:23.481Z,87.59
2022-09-02T00:59:36.240Z,88.47
2022-09-02T01:01:39.080Z,87.86
2022-09-02T01:03:42.262Z,87.45
2022-09-02T01:05:48.244Z,87.36
2022-09-02T01:07:52.342Z,87.13
2022-09-02T01:09:56.378Z,87.36
2022-09-02T01:11:59.671Z,87.00
2022-09-02T01:14:03.758Z,86.50
2022-09-02T01:16:12.369Z,86.91
2022-09-02T01:18:19.097Z,87.12
2022-09-02T01:20:24.671Z,87.95
2022-09-02T01:22:32.264Z,88.11
2022-09-02T01:24:35.671Z,87.87
2022-09-02T01:26:38.367Z,87.12
2022-09-02T01:28:41.384Z,87.48
2022-09-02T01:30:48.275Z,87.47
2022-09-02T01:32:51.895Z,87.39
2022-09-02T01:34:54.924Z,87.86
2022-09-02T01:36:57.628Z,87.66
2022-09-02T01:39:01.676Z,88.29
2022-09-02T01:41:04.804Z,88.22
2022-09-02T01:43:09.756Z,88.96
2022-09-02T01:45:12.862Z,88.14
2022-09-02T01:47:20.568Z,89.01
2022-09-02T01:49:24.068Z,89.32
2022-09-02T01:51:26.771Z,89.31
2022-09-02T01:53:30.710Z,90.66
2022-09-02T01:55:35.667Z,90.80
2022-09-02T01:57:38.601Z,91.05
2022-09-02T01:59:43.707Z,92.63
2022-09-02T02:01:46.710Z,92.10
2022-09-02T02:03:49.766Z,91.22
2022-09-02T02:05:52.516Z,91.56
2022-09-02T02:07:55.268Z,92.46
2022-09-02T02:09:57.949Z,92.20
2022-09-02T02:12:02.057Z,92.62
2022-09-02T02:14:05.991Z,92.61
2022-09-02T02:16:08.710Z,93.23
2022-09-02T02:18:11.846Z,93.92
2022-09-02T02:20:16.001Z,93.89
2022-09-02T02:22:18.695Z,93.72
2022-09-02T02:24:21.589Z,94.33
2022-09-02T02:26:24.381Z,94.42
2022-09-02T02:28:28.675Z,95.04
2022-09-02T02:30:31.639Z,95.63
2022-09-02T02:32:34.601Z,95.70
2022-09-02T02:34:37.457Z,95.46
2022-09-02T02:36:41.583Z,96.35
2022-09-02T02:38:46.234Z,95.78
2022-09-02T02:40:50.018Z,95.29
2022-09-02T02:42:54.153Z,96.15
2022-09-02T02:44:58.357Z,95.91
2022-09-02T02:47:01.355Z,96.65
2022-09-02T02:49:05.525Z,96.51
2022-09-02T02:51:09.643Z,96.57
2022-09-02T02:53:13.298Z,96.60
2022-09-02T02:55:17.949Z,96.15
2022-09-02T02:57:20.588Z,96.65
2022-09-02T02:59:23.279Z,97.25
2022-09-02T03:01:27.466Z,96.40
2022-09-02T03:03:31.865Z,96.68
2022-09-02T03:05:37.722Z,96.60
2022-09-02T03:07:40.673Z,96.50
2022-09-02T03:09:43.730Z,96.76
2022-09-02T03:11:46.453Z,96.86
2022-09-02T03:13:49.683Z,96.74
2022-09-02T03:15:53.631Z,96.99
2022-09-02T03:17:58.518Z,96.85
2022-09-02T03:20:01.912Z,96.66
2022-09-02T03:22:05.289Z,96.91
2022-09-02T03:24:08.511Z,96.29
2022-09-02T03:26:12.378Z,95.19
2022-09-02T03:28:15.873Z,96.49
2022-09-02T03:30:21.197Z,95.98
2022-09-02T03:32:24.055Z,96.52
2022-09-02T03:34:33.712Z,95.09
2022-09-02T03:36:38.724Z,95.52
2022-09-02T03:38:41.441Z,96.25
2022-09-02T03:40:44.468Z,96.80
2022-09-02T03:42:47.306Z,97.13
2022-09-02T03:44:49.984Z,97.78
2022-09-02T03:46:53.153Z,98.12
2022-09-02T03:48:55.870Z,97.99
2022-09-02T03:50:59.913Z,98.54
2022-09-02T03:53:02.597Z,98.40
2022-09-02T03:55:06.453Z,98.37
2022-09-02T03:57:09.586Z,99.75
2022-09-02T03:59:12.568Z,100.00
2022-09-02T04:01:17.203Z,99.70
2022-09-02T04:03:20.472Z,98.98
2022-09-02T04:05:23.796Z,98.62
2022-09-02T04:07:27.905Z,98.77
2022-09-02T04:09:30.681Z,99.07
2022-09-02T04:11:33.395Z,99.27
2022-09-02T04:13:37.360Z,98.76
2022-09-02T04:15:42.968Z,98.66
2022-09-02T04:18:40.587Z,99.46
2022-09-02T04:20:49.087Z,99.88
2022-09-02T04:22:53.122Z,99.52
2022-09-02T04:24:56.003Z,99.39
2022-09-02T04:27:03.853Z,99.20
2022-09-02T04:29:07.887Z,100.00
2022-09-02T04:31:13.246Z,100.00
2022-09-02T04:33:16.260Z,100.00
2022-09-02T04:35:19.206Z,100.00
2022-09-02T04:37:21.972Z,100.00
2022-09-02T04:39:26.187Z,100.00
2022-09-02T04:41:30.842Z,100.00
2022-09-02T04:43:33.588Z,100.00
2022-09-02T04:45:36.569Z,100.00
2022-09-02T04:47:39.356Z,100.00
2022-09-02T04:49:43.122Z,100.00
2022-09-02T04:51:45.832Z,100.00
2022-09-02T04:53:50.314Z,99.78
2022-09-02T04:55:57.940Z,99.24
2022-09-02T04:58:01.425Z,99.87
2022-09-02T05:00:06.631Z,99.77
2022-09-02T05:02:09.512Z,100.00
2022-09-02T05:04:12.230Z,100.00
2022-09-02T05:06:17.945Z,100.00
2022-09-02T05:08:23.956Z,99.85
2022-09-02T05:10:26.835Z,99.78
2022-09-02T05:12:32.527Z,99.70
2022-09-02T05:14:35.218Z,99.21
2022-09-02T05:16:40.138Z,98.49
2022-09-02T05:18:42.995Z,99.06
2022-09-02T05:20:45.752Z,99.03
2022-09-02T05:22:51.235Z,100.00
2022-09-02T05:24:53.898Z,99.89
2022-09-02T05:26:56.587Z,99.89
2022-09-02T05:29:00.968Z,100.00
2022-09-02T05:31:06.086Z,99.37
2022-09-02T05:33:10.538Z,99.65
2022-09-02T05:35:17.141Z,98.97
2022-09-02T05:37:19.887Z,99.08
2022-09-02T05:39:22.720Z,99.18
2022-09-02T05:41:25.537Z,98.31
2022-09-02T05:43:28.270Z,97.05
2022-09-02T05:45:32.361Z,97.31
2022-09-02T05:47:35.478Z,97.32
2022-09-02T05:49:37.364Z,96.72
2022-09-02T05:51:42.583Z,96.08
2022-09-02T05:53:45.350Z,96.40
2022-09-02T05:55:48.036Z,95.44
2022-09-02T05:57:50.713Z,94.86
2022-09-02T05:59:56.694Z,93.73
2022-09-02T06:02:00.802Z,93.82
2022-09-02T06:04:04.588Z,92.92
2022-09-02T06:06:07.906Z,91.64
2022-09-02T06:08:10.589Z,91.16
2022-09-02T06:10:14.030Z,91.56
2022-09-02T06:12:20.178Z,91.81
2022-09-02T06:14:25.409Z,91.23
2022-09-02T06:16:28.154Z,90.42
2022-09-02T06:18:32.357Z,91.05
2022-09-02T06:20:35.309Z,89.96
2022-09-02T06:22:38.114Z,89.86
2022-09-02T06:24:40.798Z,90.58
2022-09-02T06:26:44.329Z,89.86
2022-09-02T06:28:47.404Z,88.40
2022-09-02T06:30:50.495Z,88.65
2022-09-02T06:32:53.371Z,88.48
2022-09-02T06:34:57.392Z,88.11
2022-09-02T06:37:00.066Z,88.20
2022-09-02T06:39:03.260Z,86.92
2022-09-02T06:41:06.147Z,85.94
2022-09-02T06:43:08.846Z,86.01
2022-09-02T06:45:12.114Z,84.85
2022-09-02T06:47:14.827Z,83.53
2022-09-02T06:49:17.849Z,84.28
2022-09-02T06:51:24.415Z,84.01
2022-09-02T06:53:27.092Z,84.47
2022-09-02T06:55:29.852Z,83.14
2022-09-02T06:57:34.308Z,82.29
2022-09-02T06:59:37.333Z,81.71
2022-09-02T07:01:40.256Z,81.48
2022-09-02T07:04:00.792Z,80.49
2022-09-02T07:06:09.300Z,81.59
2022-09-02T07:08:13.406Z,80.11
2022-09-02T07:10:16.834Z,79.23
2022-09-02T07:12:20.224Z,78.38
2022-09-02T07:14:24.283Z,78.76
2022-09-02T07:16:27.419Z,78.55
2022-09-02T07:18:30.293Z,77.91
2022-09-02T07:20:33.019Z,78.76
2022-09-02T07:22:35.989Z,78.62
2022-09-02T07:24:40.086Z,78.02
2022-09-02T07:26:43.626Z,78.23
2022-09-02T07:28:47.191Z,76.53
2022-09-02T07:30:50.410Z,75.71
2022-09-02T07:32:53.096Z,74.61
2022-09-02T07:34:55.818Z,73.32
2022-09-02T07:37:03.251Z,72.21
2022-09-02T07:39:08.805Z,72.46
2022-09-02T07:41:13.294Z,71.22
2022-09-02T07:43:16.079Z,71.39
2022-09-02T07:45:19.027Z,71.26
2022-09-02T07:47:21.874Z,71.32
2022-09-02T07:49:25.243Z,69.25
2022-09-02T07:51:30.913Z,69.30
2022-09-02T07:53:34.035Z,69.54
2022-09-02T07:55:41.150Z,68.28
2022-09-02T07:57:45.261Z,68.64
2022-09-02T07:59:48.045Z,68.19
2022-09-02T08:01:51.610Z,66.49
2022-09-02T08:03:54.948Z,63.68
2022-09-02T08:05:58.351Z,61.96
2022-09-02T08:08:01.342Z,63.71
2022-09-02T08:10:10.660Z,61.20
2022-09-02T08:12:13.436Z,62.54
2022-09-02T08:14:20.150Z,60.80
2022-09-02T08:16:24.211Z,60.35
2022-09-02T08:18:27.678Z,62.15
2022-09-02T08:20:31.487Z,59.76
2022-09-02T08:22:35.106Z,58.60
2022-09-02T08:24:37.971Z,59.77
2022-09-02T08:26:40.700Z,58.92
2022-09-02T08:28:43.444Z,59.21
2022-09-02T08:30:47.805Z,60.11
2022-09-02T08:32:50.532Z,61.33
2022-09-02T08:34:53.231Z,61.00
2022-09-02T08:36:56.361Z,62.21
2022-09-02T08:38:59.637Z,62.65
2022-09-02T08:41:02.668Z,63.49
2022-09-02T08:43:17.838Z,61.72
2022-09-02T08:45:24.490Z,60.76
2022-09-02T08:47:33.044Z,57.87
2022-09-02T08:49:40.218Z,56.29
2022-09-02T08:51:51.036Z,56.37
2022-09-02T08:54:03.222Z,54.78
2022-09-02T08:56:09.759Z,53.28
2022-09-02T08:58:17.978Z,51.99
2022-09-02T09:00:20.848Z,49.60
2022-09-02T09:02:32.779Z,50.29
2022-09-02T09:05:08.462Z,49.59
2022-09-02T09:07:25.890Z,46.92
2022-09-02T09:09:37.395Z,48.73
2022-09-02T09:11:48.675Z,48.72
2022-09-02T09:14:08.343Z,50.98
2022-09-02T09:16:18.680Z,51.15
2022-09-02T09:18:31.775Z,49.73
2022-09-02T09:20:38.947Z,49.36
2022-09-02T09:22:42.908Z,47.87
2022-09-02T09:24:47.904Z,49.47
2022-09-02T09:26:50.541Z,47.71
2022-09-02T09:28:55.862Z,46.40
2022-09-02T09:31:01.180Z,45.92
2022-09-02T09:33:04.422Z,47.69
2022-09-02T09:35:10.767Z,49.44
2022-09-02T09:37:37.924Z,46.38
2022-09-02T09:39:40.676Z,45.25
2022-09-02T09:41:44.650Z,44.26
2022-09-02T09:43:47.536Z,45.78
2022-09-02T09:45:51.222Z,44.05
2022-09-02T09:48:27.566Z,45.33
2022-09-02T09:50:31.810Z,43.35
2022-09-02T09:52:34.586Z,44.69
2022-09-02T09:54:37.327Z,43.72
2022-09-02T09:56:40.084Z,44.49
2022-09-02T09:58:45.481Z,42.92
2022-09-02T10:00:48.327Z,44.58
2022-09-02T10:02:53.498Z,41.86
2022-09-02T10:05:11.124Z,42.99
2022-09-02T10:07:15.760Z,42.00
2022-09-02T10:09:32.537Z,42.87
2022-09-02T10:11:36.955Z,42.50
2022-09-02T10:13:39.812Z,41.54
2022-09-02T10:15:55.336Z,39.94
2022-09-02T10:18:05.628Z,42.31
2022-09-02T10:20:17.072Z,43.86
2022-09-02T10:22:59.643Z,43.45
2022-09-02T10:25:14.005Z,43.26
2022-09-02T10:27:21.329Z,44.62
2022-09-02T10:29:53.870Z,45.05
2022-09-02T10:32:17.464Z,45.14
2022-09-02T10:34:32.526Z,45.61
2022-09-02T10:36:40.115Z,46.67
2022-09-02T10:38:46.016Z,47.41
2022-09-02T10:40:53.893Z,45.87
2022-09-02T10:43:05.527Z,46.31
2022-09-02T10:45:17.737Z,46.32
2022-09-02T10:47:30.154Z,46.93
2022-09-02T10:49:46.339Z,46.80
2022-09-02T10:51:58.735Z,47.97
2022-09-02T10:54:15.501Z,47.68
2022-09-02T10:56:22.810Z,46.82
2022-09-02T10:58:38.572Z,47.54
2022-09-02T11:00:47.935Z,46.89
2022-09-02T11:02:54.410Z,47.23
2022-09-02T11:05:01.205Z,46.88
2022-09-02T11:07:06.789Z,47.48
2022-09-02T11:09:15.739Z,47.34
2022-09-02T11:11:22.424Z,47.05
2022-09-02T11:13:32.779Z,46.63
2022-09-02T11:15:53.217Z,47.17
2022-09-02T11:18:03.581Z,47.57
2022-09-02T11:20:14.037Z,46.63
2022-09-02T11:22:27.604Z,47.80
2022-09-02T11:24:38.024Z,47.83
2022-09-02T11:26:47.408Z,48.10
2022-09-02T11:28:56.679Z,46.88
2022-09-02T11:31:06.703Z,47.42
2022-09-02T11:33:17.344Z,46.82
2022-09-02T11:35:27.471Z,47.13
2022-09-02T11:37:34.829Z,47.16
2022-09-02T11:39:54.528Z,46.93
2022-09-02T11:42:27.446Z,48.33
2022-09-02T11:45:03.665Z,47.35
2022-09-02T11:47:25.027Z,46.37
2022-09-02T11:50:02.045Z,46.26
2022-09-02T11:52:09.958Z,45.94
2022-09-02T11:54:15.700Z,46.19
2022-09-02T11:56:24.698Z,45.88
2022-09-02T11:58:37.020Z,45.75
2022-09-02T12:01:04.265Z,45.96
2022-09-02T12:03:38.931Z,45.53
2022-09-02T12:05:51.681Z,46.38
2022-09-02T12:07:55.337Z,46.74
2022-09-02T12:09:58.157Z,46.10
2022-09-02T12:12:03.103Z,45.07
2022-09-02T12:14:08.048Z,46.23
2022-09-02T12:16:42.606Z,45.57
2022-09-02T12:18:47.283Z,46.05
2022-09-02T12:21:15.837Z,46.23
2022-09-02T12:23:54.915Z,46.24
2022-09-02T12:25:58.925Z,45.28
2022-09-02T12:28:18.095Z,45.73
2022-09-02T12:31:01.729Z,45.71
2022-09-02T12:33:12.483Z,44.70
2022-09-02T12:35:32.660Z,45.07
2022-09-02T12:37:54.010Z,45.18
2022-09-02T12:40:03.033Z,45.89
2022-09-02T12:42:20.697Z,45.02
2022-09-02T12:44:29.824Z,45.10
2022-09-02T12:46:48.807Z,46.11
2022-09-02T12:49:02.066Z,45.80
2022-09-02T12:51:04.875Z,45.55
2022-09-02T12:53:18.022Z,46.08
2022-09-02T12:55:27.008Z,46.87
2022-09-02T12:57:39.896Z,45.82
2022-09-02T12:59:45.522Z,45.54
2022-09-02T13:02:01.677Z,45.06
2022-09-02T13:04:21.020Z,44.75
2022-09-02T13:06:34.782Z,44.48
2022-09-02T13:09:09.042Z,44.88
2022-09-02T13:11:53.656Z,45.90
2022-09-02T13:14:22.416Z,45.64
2022-09-02T13:16:40.503Z,46.46
2022-09-02T13:19:13.794Z,45.82
2022-09-02T13:21:33.821Z,47.96
2022-09-02T13:24:22.566Z,46.28
2022-09-02T13:26:49.612Z,45.88
2022-09-02T13:29:26.350Z,45.72
2022-09-02T13:31:30.816Z,47.03
2022-09-02T13:33:33.889Z,46.91
2022-09-02T13:35:39.594Z,46.18
2022-09-02T13:37:45.133Z,45.98
2022-09-02T13:39:48.340Z,46.52
2022-09-02T13:41:51.176Z,45.81
2022-09-02T13:44:06.531Z,46.76
2022-09-02T13:46:10.469Z,47.08
2022-09-02T13:48:18.086Z,47.02
2022-09-02T13:50:24.027Z,46.42
2022-09-02T13:53:12.082Z,45.46
2022-09-02T13:54:53.896Z,46.68
2022-09-02T13:56:57.464Z,45.42
2022-09-02T13:59:00.411Z,46.47
2022-09-02T14:01:22.022Z,46.67
2022-09-02T14:03:27.386Z,47.18
2022-09-02T14:05:33.002Z,46.34
2022-09-02T14:07:39.398Z,46.93
2022-09-02T14:09:42.912Z,47.06
2022-09-02T14:11:48.006Z,47.59
2022-09-02T14:13:52.026Z,47.95
2022-09-02T14:15:55.613Z,46.88
2022-09-02T14:18:18.125Z,47.12
2022-09-02T14:20:23.847Z,46.69
2022-09-02T14:22:29.146Z,46.89
2022-09-02T14:24:40.581Z,47.07
2022-09-02T14:26:45.221Z,46.28
2022-09-02T14:28:52.409Z,46.44
2022-09-02T14:30:58.910Z,46.91
2022-09-02T14:33:18.344Z,46.73
2022-09-02T14:35:24.201Z,47.58
2022-09-02T14:37:29.628Z,47.39
2022-09-02T14:39:32.393Z,47.68
2022-09-02T14:41:37.036Z,48.00
2022-09-02T14:43:46.408Z,47.57
2022-09-02T14:45:50.739Z,47.41
2022-09-02T14:47:54.090Z,47.96
2022-09-02T14:49:57.276Z,46.94
2022-09-02T14:52:05.014Z,46.68
2022-09-02T14:54:08.437Z,46.95
2022-09-02T14:56:11.289Z,46.63
2022-09-02T14:58:14.375Z,46.28
2022-09-02T15:00:19.506Z,47.34
2022-09-02T15:02:24.162Z,47.11
2022-09-02T15:04:27.259Z,46.32
2022-09-02T15:06:29.957Z,47.45
2022-09-02T15:08:34.018Z,47.55
2022-09-02T15:10:38.166Z,46.87
2022-09-02T15:12:51.134Z,46.87
2022-09-02T15:14:54.378Z,47.00
2022-09-02T15:16:57.049Z,47.02
2022-09-02T15:18:59.802Z,45.87
2022-09-02T15:21:03.158Z,46.99
2022-09-02T15:23:05.928Z,47.04
2022-09-02T15:25:11.040Z,46.80
2022-09-02T15:27:14.637Z,47.19
2022-09-02T15:29:19.992Z,47.41
2022-09-02T15:31:22.792Z,46.90
2022-09-02T15:33:25.607Z,46.93
2022-09-02T15:35:28.373Z,46.71
2022-09-02T15:37:31.198Z,47.04
2022-09-02T15:39:33.903Z,47.20
2022-09-02T15:41:38.125Z,46.46
2022-09-02T15:43:40.958Z,47.13
2022-09-02T15:45:47.133Z,46.70
2022-09-02T15:47:49.916Z,47.31
2022-09-02T15:49:53.417Z,47.24
2022-09-02T15:51:56.120Z,46.61
2022-09-02T15:54:01.033Z,47.27
2022-09-02T15:56:04.217Z,47.01
2022-09-02T15:58:08.198Z,47.51
2022-09-02T16:00:11.940Z,47.73
2022-09-02T16:02:14.768Z,47.80
2022-09-02T16:04:17.975Z,48.05
2022-09-02T16:06:21.024Z,48.71
2022-09-02T16:08:23.714Z,48.21
2022-09-02T16:10:26.413Z,48.43
2022-09-02T16:12:30.715Z,48.37
2022-09-02T16:14:34.980Z,48.33
2022-09-02T16:16:37.965Z,48.04
2022-09-02T16:18:41.754Z,48.39
2022-09-02T16:20:44.424Z,48.70
2022-09-02T16:22:48.284Z,48.43
2022-09-02T16:24:51.675Z,49.08
2022-09-02T16:26:55.788Z,48.74
2022-09-02T16:29:00.229Z,48.84
2022-09-02T16:31:05.226Z,49.93
2022-09-02T16:33:09.329Z,48.97
2022-09-02T16:35:12.004Z,49.61
2022-09-02T16:37:14.724Z,49.89
2022-09-02T16:39:18.487Z,49.57
2022-09-02T16:41:25.493Z,49.38
2022-09-02T16:43:28.850Z,49.64
2022-09-02T16:45:31.980Z,49.93
2022-09-02T16:47:36.068Z,50.43
2022-09-02T16:49:38.750Z,49.85
2022-09-02T16:51:41.825Z,49.91
2022-09-02T16:53:44.827Z,49.98
2022-09-02T16:55:47.944Z,50.13
2022-09-02T16:57:50.697Z,50.34
2022-09-02T16:59:53.356Z,50.65
2022-09-02T17:01:56.167Z,50.18
2022-09-02T17:04:01.237Z,50.14
2022-09-02T17:06:04.107Z,50.65
2022-09-02T17:08:07.454Z,50.42
2022-09-02T17:10:11.071Z,50.92
2022-09-02T17:12:13.822Z,51.53
2022-09-02T17:14:18.367Z,51.67
2022-09-02T17:16:22.680Z,50.89
2022-09-02T17:18:25.444Z,51.91
2022-09-02T17:20:29.504Z,51.70
2022-09-02T17:22:32.218Z,51.57
2022-09-02T17:24:35.093Z,52.39
2022-09-02T17:26:40.317Z,52.03
2022-09-02T17:28:47.655Z,52.46
2022-09-02T17:30:50.487Z,52.78
2022-09-02T17:32:56.586Z,53.05
2022-09-02T17:34:59.583Z,53.09
2022-09-02T17:37:04.490Z,53.10
2022-09-02T17:39:09.321Z,53.41
2022-09-02T17:41:30.135Z,53.55
2022-09-02T17:43:32.950Z,53.71
2022-09-02T17:45:37.452Z,53.82
2022-09-02T17:47:40.226Z,53.87
2022-09-02T17:49:44.096Z,53.95
2022-09-02T17:51:47.650Z,53.98
2022-09-02T17:53:52.049Z,54.61
2022-09-02T17:56:04.727Z,54.68
2022-09-02T17:58:15.003Z,55.17
2022-09-02T18:00:21.180Z,54.82
2022-09-02T18:02:41.393Z,55.00
2022-09-02T18:04:53.445Z,54.67
2022-09-02T18:07:05.611Z,55.20
2022-09-02T18:09:10.851Z,54.75
2022-09-02T18:11:14.157Z,55.15
2022-09-02T18:13:22.986Z,55.20
2022-09-02T18:15:26.435Z,55.18
2022-09-02T18:17:36.168Z,55.05
2022-09-02T18:19:48.950Z,55.49
2022-09-02T18:22:05.757Z,55.18
2022-09-02T18:24:19.418Z,56.01
2022-09-02T18:26:31.300Z,56.03
2022-09-02T18:28:52.272Z,56.35
2022-09-02T18:31:04.887Z,56.72
2022-09-02T18:33:28.251Z,56.53
2022-09-02T18:35:42.228Z,56.72
2022-09-02T18:37:57.482Z,56.65
2022-09-02T18:40:24.654Z,56.61
2022-09-02T18:42:39.050Z,57.06
2022-09-02T18:44:47.865Z,57.43
2022-09-02T18:46:55.244Z,57.73
2022-09-02T18:49:02.408Z,57.67
2022-09-02T18:51:11.463Z,57.36
2022-09-02T18:53:20.391Z,57.81
2022-09-02T18:55:30.347Z,57.66
2022-09-02T18:57:38.736Z,57.55
2022-09-02T18:59:48.117Z,58.50
2022-09-02T19:01:56.344Z,58.31
2022-09-02T19:04:00.285Z,58.21
2022-09-02T19:06:05.888Z,58.46
2022-09-02T19:08:28.505Z,58.37
2022-09-02T19:10:33.090Z,58.75
2022-09-02T19:12:39.184Z,58.46
2022-09-02T19:14:41.961Z,59.52
2022-09-02T19:16:44.716Z,59.62
2022-09-02T19:18:49.186Z,59.40
2022-09-02T19:20:52.897Z,59.60
2022-09-02T19:22:58.544Z,59.65
2022-09-02T19:25:07.156Z,59.23
2022-09-02T19:27:15.634Z,59.12
2022-09-02T19:29:18.895Z,59.49
2022-09-02T19:31:30.468Z,59.64
2022-09-02T19:33:36.637Z,59.15
2022-09-02T19:35:45.144Z,59.31
2022-09-02T19:37:51.429Z,59.03
2022-09-02T19:39:54.934Z,59.08
2022-09-02T19:41:57.633Z,59.23
2022-09-02T19:44:01.714Z,59.05
2022-09-02T19:46:04.462Z,59.23
2022-09-02T19:48:11.107Z,59.32
2022-09-02T19:50:14.042Z,59.69
2022-09-02T19:52:16.885Z,59.52
2022-09-02T19:54:19.558Z,59.52
2022-09-02T19:56:22.303Z,59.42
2022-09-02T19:58:25.745Z,59.44
2022-09-02T20:00:31.650Z,59.46
2022-09-02T20:02:34.512Z,60.01
2022-09-02T20:04:37.305Z,59.63
2022-09-02T20:06:40.557Z,59.63
2022-09-02T20:08:43.306Z,59.99
2022-09-02T20:10:55.146Z,59.75
2022-09-02T20:12:58.644Z,59.63
2022-09-02T20:15:02.809Z,59.90
2022-09-02T20:17:13.058Z,60.05
2022-09-02T20:19:15.838Z,60.09
2022-09-02T20:21:22.296Z,60.22
2022-09-02T20:23:26.167Z,60.32
2022-09-02T20:25:39.669Z,60.19
2022-09-02T20:27:59.127Z,60.49
2022-09-02T20:30:09.955Z,60.20
2022-09-02T20:32:28.910Z,61.15
2022-09-02T20:34:40.860Z,61.13
2022-09-02T20:36:52.161Z,61.06
2022-09-02T20:39:15.134Z,61.71
2022-09-02T20:41:30.062Z,61.35
2022-09-02T20:43:46.364Z,61.36
2022-09-02T20:45:55.884Z,61.40
2022-09-02T20:48:07.305Z,61.33
2022-09-02T20:50:40.851Z,60.67
2022-09-02T20:52:56.653Z,60.97
2022-09-02T20:55:07.668Z,60.96
2022-09-02T20:57:23.575Z,61.04
2022-09-02T20:59:33.886Z,61.68
2022-09-02T21:01:39.521Z,61.49
2022-09-02T21:04:04.559Z,61.44
2022-09-02T21:06:11.680Z,61.02
2022-09-02T21:08:24.796Z,60.93
2022-09-02T21:10:34.322Z,61.13
2022-09-02T21:12:42.912Z,60.79
2022-09-02T21:14:51.392Z,60.77
2022-09-02T21:17:00.436Z,60.83
2022-09-02T21:19:11.946Z,61.52
2022-09-02T21:21:24.451Z,61.56
2022-09-02T21:23:32.213Z,61.68
2022-09-02T21:25:43.953Z,62.05
2022-09-02T21:27:51.546Z,62.44
2022-09-02T21:30:02.358Z,62.73
2022-09-02T21:32:09.771Z,63.03
2022-09-02T21:34:20.629Z,63.89
2022-09-02T21:36:27.890Z,63.58
2022-09-02T21:38:37.100Z,64.29
2022-09-02T21:40:54.561Z,64.48
2022-09-02T21:43:20.578Z,64.61
2022-09-02T21:45:30.280Z,65.82
2022-09-02T21:47:39.513Z,66.14
2022-09-02T21:50:00.997Z,66.54
2022-09-02T21:52:13.468Z,66.67
2022-09-02T21:54:38.829Z,66.81
2022-09-02T21:56:55.610Z,67.45
2022-09-02T21:59:15.047Z,67.69
2022-09-02T22:01:35.243Z,67.30
2022-09-02T22:03:43.207Z,67.33
2022-09-02T22:05:54.361Z,67.81
2022-09-02T22:08:05.961Z,67.99
2022-09-02T22:10:17.935Z,68.57
2022-09-02T22:12:22.935Z,68.52
2022-09-02T22:14:34.035Z,68.26
2022-09-02T22:16:48.667Z,68.20
2022-09-02T22:19:00.725Z,68.52
2022-09-02T22:21:11.230Z,68.75
2022-09-02T22:23:23.349Z,68.89
2022-09-02T22:25:27.551Z,69.38
2022-09-02T22:27:35.145Z,69.26
2022-09-02T22:29:44.045Z,68.92
2022-09-02T22:31:50.230Z,68.72
2022-09-02T22:33:58.576Z,68.69
2022-09-02T22:36:08.296Z,68.72
2022-09-02T22:38:24.965Z,68.23
2022-09-02T22:40:33.448Z,68.30
2022-09-02T22:42:37.792Z,68.74
2022-09-02T22:45:03.521Z,69.30
2022-09-02T22:47:27.894Z,69.43
2022-09-02T22:49:54.969Z,68.50
2022-09-02T22:52:25.523Z,68.61
2022-09-02T22:54:28.447Z,68.55
2022-09-02T22:56:40.393Z,68.40
2022-09-02T22:58:58.548Z,68.29
2022-09-02T23:01:07.384Z,68.71
2022-09-02T23:03:16.474Z,68.28
2022-09-02T23:05:45.002Z,68.28
2022-09-02T23:07:50.501Z,68.53
2022-09-02T23:10:01.822Z,67.98
2022-09-02T23:12:18.280Z,67.60
2022-09-02T23:14:31.901Z,68.52
2022-09-02T23:16:45.869Z,68.35
2022-09-02T23:19:05.612Z,67.86
2022-09-02T23:21:22.475Z,67.27
2022-09-02T23:23:39.171Z,67.80
2022-09-02T23:26:03.799Z,67.43
2022-09-02T23:28:16.578Z,67.23
2022-09-02T23:30:19.500Z,66.72
2022-09-02T23:32:47.156Z,66.80
2022-09-02T23:35:04.451Z,66.88
2022-09-02T23:37:17.899Z,66.70
2022-09-02T23:39:35.154Z,66.61
2022-09-02T23:41:38.795Z,67.22
2022-09-02T23:43:42.800Z,67.26
2022-09-02T23:45:47.188Z,67.37
2022-09-02T23:48:18.627Z,67.17
2022-09-02T23:50:29.992Z,67.18
2022-09-02T23:52:42.888Z,67.28
2022-09-02T23:55:00.621Z,67.23
2022-09-02T23:57:18.551Z,66.96
2022-09-02T23:59:39.395Z,66.97
